createdAt,value
2023-01-25T00:00:06.793Z,23.65
2023-01-25T00:02:54.990Z,26.73
2023-01-25T00:05:43.332Z,24.73
2023-01-25T00:08:31.540Z,23.83
2023-01-25T00:11:21.490Z,26.52
2023-01-25T00:14:11.645Z,24.00
2023-01-25T00:16:59.869Z,24.33
2023-01-25T00:19:48.062Z,25.95
2023-01-25T00:22:36.278Z,23.80
2023-01-25T00:25:24.450Z,25.27
2023-01-25T00:28:14.076Z,23.50
2023-01-25T00:31:02.994Z,26.92
2023-01-25T00:33:56.933Z,28.35
2023-01-25T00:36:46.033Z,27.17
2023-01-25T00:39:34.200Z,25.20
2023-01-25T00:42:23.354Z,28.63
2023-01-25T00:45:14.004Z,23.52
2023-01-25T00:48:02.204Z,21.95
2023-01-25T00:50:50.386Z,25.63
2023-01-25T00:53:38.915Z,28.88
2023-01-25T00:56:27.101Z,25.08
2023-01-25T00:59:15.793Z,29.98
2023-01-25T01:02:05.491Z,23.45
2023-01-25T01:04:56.547Z,25.85
2023-01-25T01:07:44.856Z,29.58
2023-01-25T01:10:33.018Z,30.25
2023-01-25T01:13:21.215Z,24.73
2023-01-25T01:16:12.324Z,23.75
2023-01-25T01:19:01.990Z,23.10
2023-01-25T01:21:50.151Z,24.73
2023-01-25T01:24:38.506Z,28.60
2023-01-25T01:27:26.738Z,24.92
2023-01-25T01:30:15.259Z,27.52
2023-01-25T01:33:03.496Z,21.63
2023-01-25T01:35:53.037Z,23.70
2023-01-25T01:38:41.374Z,23.30
2023-01-25T01:41:29.539Z,23.75
2023-01-25T01:44:20.262Z,22.58
2023-01-25T01:47:14.415Z,18.20
2023-01-25T01:50:07.200Z,28.95
2023-01-25T01:52:57.312Z,23.95
2023-01-25T01:55:45.521Z,24.30
2023-01-25T01:58:34.811Z,29.42
2023-01-25T02:01:23.058Z,22.70
2023-01-25T02:04:12.063Z,26.05
2023-01-25T02:07:06.804Z,30.50
2023-01-25T02:09:56.383Z,32.05
2023-01-25T02:12:45.639Z,32.53
2023-01-25T02:15:39.599Z,28.98
2023-01-25T02:18:27.905Z,29.13
2023-01-25T02:21:16.508Z,28.48
2023-01-25T02:24:10.143Z,30.55
2023-01-25T02:26:59.803Z,32.42
2023-01-25T02:29:48.674Z,32.35
2023-01-25T02:32:36.843Z,29.38
2023-01-25T02:35:37.726Z,32.05
2023-01-25T02:38:26.514Z,35.60
2023-01-25T02:41:19.384Z,33.03
2023-01-25T02:44:12.458Z,32.13
2023-01-25T02:47:00.938Z,38.85
2023-01-25T02:49:49.084Z,33.78
2023-01-25T02:52:37.656Z,32.10
2023-01-25T02:55:25.826Z,36.42
2023-01-25T02:58:14.013Z,33.28
2023-01-25T03:01:03.565Z,32.83
2023-01-25T03:03:51.818Z,35.42
2023-01-25T03:06:40.948Z,37.80
2023-01-25T03:09:29.128Z,36.47
2023-01-25T03:12:17.365Z,36.35
2023-01-25T03:15:07.014Z,37.90
2023-01-25T03:17:56.879Z,40.05
2023-01-25T03:20:45.058Z,39.25
2023-01-25T03:23:33.504Z,42.15
2023-01-25T03:26:23.933Z,35.35
2023-01-25T03:29:12.073Z,41.42
2023-01-25T03:32:00.369Z,41.53
2023-01-25T03:34:50.026Z,41.78
2023-01-25T03:37:38.217Z,41.35
2023-01-25T03:40:26.359Z,41.95
2023-01-25T03:43:14.588Z,47.75
2023-01-25T03:46:03.421Z,36.25
2023-01-25T03:48:51.612Z,37.28
2023-01-25T03:51:41.118Z,39.90
2023-01-25T03:54:29.285Z,37.47
2023-01-25T03:57:17.452Z,40.83
2023-01-25T04:00:06.808Z,37.45
2023-01-25T04:02:54.977Z,44.00
2023-01-25T04:05:43.680Z,34.83
2023-01-25T04:08:33.573Z,38.67
2023-01-25T04:11:21.727Z,37.13
2023-01-25T04:14:11.522Z,41.92
2023-01-25T04:16:59.748Z,134.57
2023-01-25T04:19:47.912Z,77.40
2023-01-25T04:22:36.123Z,74.30
2023-01-25T04:25:25.716Z,51.88
2023-01-25T04:28:13.883Z,51.33
2023-01-25T04:31:03.620Z,67.05
2023-01-25T04:33:51.911Z,36.35
2023-01-25T04:36:40.082Z,135.43
2023-01-25T04:39:28.230Z,184.45
2023-01-25T04:42:17.735Z,121.13
2023-01-25T04:45:07.331Z,66.18
2023-01-25T04:48:00.250Z,35.25
2023-01-25T04:50:48.532Z,32.35
2023-01-25T04:53:36.732Z,34.90
2023-01-25T04:56:25.842Z,37.92
2023-01-25T04:59:15.648Z,33.05
2023-01-25T05:02:03.902Z,32.78
2023-01-25T05:04:52.108Z,27.52
2023-01-25T05:07:40.429Z,27.75
2023-01-25T05:10:28.711Z,35.78
2023-01-25T05:13:16.911Z,28.98
2023-01-25T05:16:08.984Z,30.52
2023-01-25T05:18:57.410Z,32.22
2023-01-25T05:22:00.604Z,37.83
2023-01-25T05:24:49.434Z,40.10
2023-01-25T05:27:36.671Z,35.20
2023-01-25T05:30:24.835Z,40.40
2023-01-25T05:33:14.411Z,43.30
2023-01-25T05:36:02.577Z,36.83
2023-01-25T05:38:50.758Z,39.33
2023-01-25T05:41:38.905Z,35.95
2023-01-25T05:44:27.168Z,41.13
2023-01-25T05:47:17.340Z,37.70
2023-01-25T05:50:09.552Z,41.47
2023-01-25T05:52:57.807Z,37.33
2023-01-25T05:55:46.317Z,40.53
2023-01-25T05:58:34.536Z,35.72
2023-01-25T06:01:23.108Z,33.38
2023-01-25T06:04:15.334Z,39.35
2023-01-25T06:07:04.871Z,41.05
2023-01-25T06:09:53.088Z,37.53
2023-01-25T06:12:41.412Z,36.47
2023-01-25T06:15:29.622Z,36.75
2023-01-25T06:18:17.798Z,35.13
2023-01-25T06:21:06.387Z,37.75
2023-01-25T06:23:56.037Z,37.28
2023-01-25T06:26:44.250Z,36.45
2023-01-25T06:29:32.400Z,42.50
2023-01-25T06:32:20.658Z,44.55
2023-01-25T06:35:09.911Z,45.40
2023-01-25T06:37:58.430Z,47.60
2023-01-25T06:40:47.966Z,42.38
2023-01-25T06:43:36.442Z,41.22
2023-01-25T06:46:24.812Z,40.70
2023-01-25T06:49:13.284Z,37.10
2023-01-25T06:52:01.964Z,44.40
2023-01-25T06:54:50.158Z,44.10
2023-01-25T06:57:39.671Z,49.10
2023-01-25T07:00:27.920Z,47.95
2023-01-25T07:03:16.107Z,51.55
2023-01-25T07:06:06.441Z,48.30
2023-01-25T07:08:54.710Z,38.27
2023-01-25T07:11:43.000Z,50.92
2023-01-25T07:14:32.655Z,56.25
2023-01-25T07:17:20.935Z,54.97
2023-01-25T07:20:10.338Z,56.08
2023-01-25T07:23:02.047Z,55.42
2023-01-25T07:25:51.717Z,58.13
2023-01-25T07:28:39.890Z,54.33
2023-01-25T07:31:29.626Z,57.80
2023-01-25T07:34:17.841Z,62.50
2023-01-25T07:37:06.121Z,58.38
2023-01-25T07:39:58.152Z,57.63
2023-01-25T07:42:46.290Z,60.25
2023-01-25T07:45:34.433Z,71.40
2023-01-25T07:48:23.941Z,62.75
2023-01-25T07:51:27.069Z,69.13
2023-01-25T07:54:15.439Z,65.70
2023-01-25T07:57:03.705Z,63.13
2023-01-25T07:59:51.937Z,71.40
2023-01-25T08:02:40.103Z,77.47
2023-01-25T08:05:29.730Z,67.03
2023-01-25T08:08:17.983Z,72.57
2023-01-25T08:11:11.100Z,74.15
2023-01-25T08:14:01.895Z,76.25
2023-01-25T08:16:50.072Z,70.03
2023-01-25T08:19:38.615Z,66.75
2023-01-25T08:22:28.653Z,65.93
2023-01-25T08:25:17.026Z,65.30
2023-01-25T08:28:05.349Z,65.18
2023-01-25T08:30:57.460Z,70.45
2023-01-25T08:33:46.865Z,60.17
2023-01-25T08:36:35.323Z,64.80
2023-01-25T08:39:24.893Z,58.08
2023-01-25T08:42:13.080Z,62.72
2023-01-25T08:45:02.693Z,59.22
2023-01-25T08:47:50.906Z,60.10
2023-01-25T08:50:39.105Z,56.72
2023-01-25T08:53:29.169Z,66.68
2023-01-25T08:56:19.270Z,71.85
2023-01-25T08:59:07.900Z,61.10
2023-01-25T09:01:56.143Z,62.15
2023-01-25T09:04:44.352Z,68.30
2023-01-25T09:07:37.778Z,57.45
2023-01-25T09:10:26.076Z,71.13
2023-01-25T09:13:15.643Z,68.30
2023-01-25T09:16:05.438Z,62.30
2023-01-25T09:18:53.717Z,62.78
2023-01-25T09:21:42.112Z,59.08
2023-01-25T09:24:30.499Z,58.95
2023-01-25T09:27:18.766Z,62.65
2023-01-25T09:30:18.324Z,66.03
2023-01-25T09:33:07.087Z,52.90
2023-01-25T09:35:55.657Z,61.65
2023-01-25T09:38:43.854Z,61.08
2023-01-25T09:41:53.445Z,73.80
2023-01-25T09:45:05.056Z,78.90
2023-01-25T09:48:00.912Z,69.05
2023-01-25T09:51:09.029Z,61.47
2023-01-25T09:53:58.631Z,49.53
2023-01-25T09:56:51.625Z,61.20
2023-01-25T09:59:41.005Z,49.30
2023-01-25T10:02:41.220Z,45.38
2023-01-25T10:05:35.896Z,59.22
2023-01-25T10:08:30.711Z,51.42
2023-01-25T10:11:24.312Z,51.85
2023-01-25T10:14:16.104Z,48.10
2023-01-25T10:17:10.510Z,51.72
2023-01-25T10:20:10.373Z,52.97
2023-01-25T10:23:25.768Z,52.10
2023-01-25T10:26:17.685Z,44.80
2023-01-25T10:29:13.825Z,37.50
2023-01-25T10:32:12.197Z,39.58
2023-01-25T10:35:33.335Z,46.38
2023-01-25T10:38:30.994Z,44.47
2023-01-25T10:41:28.450Z,37.08
2023-01-25T10:44:25.797Z,40.83
2023-01-25T10:47:19.337Z,42.08
2023-01-25T10:50:08.221Z,40.58
2023-01-25T10:52:59.514Z,39.90
2023-01-25T10:58:46.194Z,36.28
2023-01-25T11:01:35.986Z,38.42
2023-01-25T11:04:31.245Z,44.25
2023-01-25T11:07:30.852Z,47.47
2023-01-25T11:10:30.712Z,42.55
2023-01-25T11:13:26.328Z,39.22
2023-01-25T11:16:32.807Z,40.15
2023-01-25T11:19:28.708Z,41.50
2023-01-25T11:22:25.941Z,36.33
2023-01-25T11:25:27.673Z,39.58
2023-01-25T11:28:21.544Z,39.30
2023-01-25T11:31:13.990Z,36.08
2023-01-25T11:34:02.270Z,41.22
2023-01-25T11:37:06.598Z,43.95
2023-01-25T11:40:03.513Z,44.78
2023-01-25T11:43:00.908Z,42.92
2023-01-25T11:46:25.065Z,44.80
2023-01-25T11:49:26.086Z,50.85
2023-01-25T11:52:26.362Z,44.55
2023-01-25T11:55:26.110Z,52.00
2023-01-25T11:58:33.540Z,46.45
2023-01-25T12:01:35.116Z,36.38
2023-01-25T12:04:53.719Z,34.67
2023-01-25T12:07:48.808Z,42.95
2023-01-25T12:10:46.418Z,36.92
2023-01-25T12:13:46.635Z,43.28
2023-01-25T12:16:49.679Z,39.92
2023-01-25T12:19:58.486Z,40.47
2023-01-25T12:23:09.772Z,37.63
2023-01-25T12:26:07.881Z,39.78
2023-01-25T12:29:05.273Z,39.13
2023-01-25T12:31:59.312Z,39.55
2023-01-25T12:34:51.218Z,39.20
2023-01-25T12:37:43.197Z,42.05
2023-01-25T12:40:41.925Z,40.45
2023-01-25T12:43:34.715Z,37.80
2023-01-25T12:46:27.613Z,36.38
2023-01-25T12:49:26.917Z,36.55
2023-01-25T12:52:23.191Z,34.30
2023-01-25T12:55:17.137Z,34.90
2023-01-25T12:58:11.734Z,32.15
2023-01-25T13:01:07.011Z,30.48
2023-01-25T13:04:11.183Z,32.22
2023-01-25T13:07:11.769Z,32.80
2023-01-25T13:10:04.449Z,33.72
2023-01-25T13:12:53.924Z,36.35
2023-01-25T13:15:43.657Z,35.65
2023-01-25T13:18:41.893Z,33.40
2023-01-25T13:21:47.039Z,34.05
2023-01-25T13:25:17.103Z,47.38
2023-01-25T13:28:41.470Z,47.70
2023-01-25T13:31:52.081Z,42.72
2023-01-25T13:37:59.747Z,37.47
2023-01-25T13:41:14.364Z,43.30
2023-01-25T13:44:26.204Z,36.92
2023-01-25T13:47:17.381Z,33.95
2023-01-25T13:50:18.701Z,37.40
2023-01-25T13:55:59.125Z,35.28
2023-01-25T13:58:48.726Z,41.50
2023-01-25T14:01:37.848Z,40.65
2023-01-25T14:04:26.370Z,42.13
2023-01-25T14:07:18.779Z,41.25
2023-01-25T14:10:11.659Z,40.53
2023-01-25T14:13:03.132Z,46.72
2023-01-25T14:15:56.559Z,40.08
2023-01-25T14:18:45.305Z,42.05
2023-01-25T14:21:33.498Z,43.90
2023-01-25T14:24:21.728Z,44.00
2023-01-25T14:27:15.095Z,43.35
2023-01-25T14:30:06.706Z,43.17
2023-01-25T14:32:56.825Z,44.22
2023-01-25T14:36:11.672Z,41.33
2023-01-25T14:38:53.812Z,44.10
2023-01-25T14:41:59.201Z,49.47
2023-01-25T14:44:48.921Z,49.55
2023-01-25T14:47:38.521Z,44.30
2023-01-25T14:50:33.233Z,42.97
2023-01-25T14:53:24.149Z,48.03
2023-01-25T14:56:33.920Z,55.63
2023-01-25T14:59:36.763Z,54.13
2023-01-25T15:02:28.664Z,43.20
2023-01-25T15:05:24.084Z,45.65
2023-01-25T15:08:17.372Z,42.15
2023-01-25T15:11:20.353Z,46.47
2023-01-25T15:14:19.803Z,47.50
2023-01-25T15:17:08.023Z,44.00
2023-01-25T15:19:56.232Z,41.35
2023-01-25T15:22:45.953Z,39.25
2023-01-25T15:25:34.464Z,42.00
2023-01-25T15:28:24.291Z,41.15
2023-01-25T15:31:18.093Z,38.90
2023-01-25T15:34:07.237Z,45.25
2023-01-25T15:36:55.450Z,53.05
2023-01-25T15:39:44.983Z,43.42
2023-01-25T15:42:33.159Z,46.65
2023-01-25T15:45:21.333Z,48.67
2023-01-25T15:48:14.422Z,48.70
2023-01-25T15:51:03.025Z,47.75
2023-01-25T15:53:51.421Z,52.65
2023-01-25T15:56:42.543Z,41.15
2023-01-25T15:59:30.878Z,44.90
2023-01-25T16:02:19.356Z,39.92
2023-01-25T16:05:07.886Z,45.95
2023-01-25T16:07:56.882Z,45.92
2023-01-25T16:10:45.382Z,43.28
2023-01-25T16:13:34.875Z,42.88
2023-01-25T16:16:25.514Z,65.20
2023-01-25T16:19:15.104Z,57.70
2023-01-25T16:22:03.290Z,52.28
2023-01-25T16:24:51.497Z,52.83
2023-01-25T16:27:39.974Z,45.63
2023-01-25T16:30:32.505Z,53.20
2023-01-25T16:33:24.087Z,54.90
2023-01-25T16:36:16.272Z,71.45
2023-01-25T16:39:10.147Z,57.25
2023-01-25T16:41:58.842Z,58.22
2023-01-25T16:44:48.437Z,65.43
2023-01-25T16:47:37.965Z,56.38
2023-01-25T16:50:26.622Z,51.78
2023-01-25T16:53:14.791Z,52.78
2023-01-25T16:56:02.958Z,50.17
2023-01-25T16:58:52.478Z,54.15
2023-01-25T17:01:41.481Z,74.20
2023-01-25T17:04:31.080Z,83.22
2023-01-25T17:07:19.266Z,79.20
2023-01-25T17:10:08.461Z,53.67
2023-01-25T17:12:56.798Z,51.90
2023-01-25T17:15:45.002Z,56.60
2023-01-25T17:18:33.170Z,51.70
2023-01-25T17:21:23.003Z,54.30
2023-01-25T17:24:14.317Z,53.72
2023-01-25T17:27:03.228Z,54.58
2023-01-25T17:29:51.390Z,52.63
2023-01-25T17:32:40.969Z,52.60
2023-01-25T17:35:29.172Z,48.28
2023-01-25T17:38:20.249Z,50.72
2023-01-25T17:41:10.934Z,51.42
2023-01-25T17:43:59.323Z,53.88
2023-01-25T17:46:48.132Z,61.08
2023-01-25T17:49:36.307Z,54.45
2023-01-25T17:52:24.487Z,56.63
2023-01-25T17:55:13.996Z,52.50
2023-01-25T17:58:02.208Z,62.10
2023-01-25T18:00:50.384Z,52.97
2023-01-25T18:03:38.566Z,59.60
2023-01-25T18:06:29.519Z,57.55
2023-01-25T18:09:18.746Z,46.03
2023-01-25T18:12:08.548Z,57.13
2023-01-25T18:14:56.688Z,59.88
2023-01-25T18:17:45.470Z,62.03
2023-01-25T18:20:34.118Z,50.97
2023-01-25T18:23:22.745Z,44.20
2023-01-25T18:26:18.175Z,41.30
2023-01-25T18:29:35.723Z,40.97
2023-01-25T18:32:23.957Z,45.40
2023-01-25T18:35:12.407Z,48.92
2023-01-25T18:38:01.222Z,39.17
2023-01-25T18:40:49.406Z,48.85
2023-01-25T18:43:37.774Z,44.65
2023-01-25T18:46:27.371Z,47.25
2023-01-25T18:49:15.606Z,39.28
2023-01-25T18:52:11.354Z,45.50
2023-01-25T18:55:00.169Z,49.80
2023-01-25T18:57:48.314Z,54.15
2023-01-25T19:00:36.509Z,40.92
2023-01-25T19:03:26.096Z,48.55
2023-01-25T19:06:15.338Z,46.35
2023-01-25T19:09:04.428Z,49.92
2023-01-25T19:11:52.919Z,42.95
2023-01-25T19:14:41.143Z,58.20
2023-01-25T19:17:29.358Z,57.10
2023-01-25T19:20:19.298Z,52.17
2023-01-25T19:23:08.443Z,45.05
2023-01-25T19:25:56.989Z,49.40
2023-01-25T19:28:46.325Z,45.33
2023-01-25T19:31:37.307Z,44.33
2023-01-25T19:34:25.815Z,54.13
2023-01-25T19:37:15.338Z,50.30
2023-01-25T19:40:03.545Z,39.95
2023-01-25T19:42:51.735Z,45.63
2023-01-25T19:45:39.931Z,43.83
2023-01-25T19:48:32.217Z,45.53
2023-01-25T19:51:21.953Z,40.35
2023-01-25T19:54:15.830Z,38.00
2023-01-25T19:57:04.142Z,35.10
2023-01-25T19:59:52.326Z,35.42
2023-01-25T20:02:40.566Z,26.98
2023-01-25T20:05:28.739Z,28.77
2023-01-25T20:08:16.938Z,35.17
2023-01-25T20:11:08.255Z,29.13
2023-01-25T20:13:58.891Z,32.38
2023-01-25T20:16:52.542Z,22.23
2023-01-25T20:19:40.690Z,30.23
2023-01-25T20:22:28.915Z,25.30
2023-01-25T20:25:17.216Z,24.40
2023-01-25T20:28:06.798Z,26.48
2023-01-25T20:30:55.364Z,29.92
2023-01-25T20:33:43.540Z,24.98
2023-01-25T20:36:32.961Z,28.08
2023-01-25T20:39:22.388Z,25.17
2023-01-25T20:42:11.137Z,18.65
2023-01-25T20:45:01.526Z,22.50
2023-01-25T20:47:49.693Z,21.45
2023-01-25T20:50:37.916Z,25.67
2023-01-25T20:53:26.138Z,23.85
2023-01-25T20:56:15.913Z,21.77
2023-01-25T20:59:04.419Z,25.30
2023-01-25T21:01:53.993Z,21.60
2023-01-25T21:04:42.264Z,20.00
2023-01-25T21:07:30.534Z,23.08
2023-01-25T21:10:19.310Z,17.92
2023-01-25T21:13:07.861Z,17.42
2023-01-25T21:16:00.496Z,16.25
2023-01-25T21:18:51.763Z,17.83
2023-01-25T21:24:28.082Z,12.55
2023-01-25T21:27:16.360Z,16.85
2023-01-25T21:30:05.031Z,16.20
2023-01-25T21:32:53.211Z,17.20
2023-01-25T21:35:42.674Z,17.77
2023-01-25T21:38:30.900Z,16.40
2023-01-25T21:41:20.761Z,18.08
2023-01-25T21:44:26.278Z,17.20
2023-01-25T21:47:29.526Z,15.68
2023-01-25T21:50:36.530Z,20.48
2023-01-25T21:53:26.027Z,18.23
2023-01-25T21:56:14.181Z,20.40
2023-01-25T21:59:02.368Z,16.35
2023-01-25T22:01:51.461Z,16.33
2023-01-25T22:04:39.691Z,20.70
2023-01-25T22:07:27.820Z,18.00
2023-01-25T22:10:18.371Z,21.83
2023-01-25T22:13:06.547Z,22.23
2023-01-25T22:15:58.832Z,16.90
2023-01-25T22:18:47.053Z,18.80
2023-01-25T22:21:35.275Z,19.45
2023-01-25T22:24:23.808Z,23.52
2023-01-25T22:27:32.977Z,17.63
2023-01-25T22:30:21.349Z,23.70
2023-01-25T22:33:09.522Z,21.30
2023-01-25T22:35:57.663Z,23.35
2023-01-25T22:38:45.902Z,23.95
2023-01-25T22:41:38.025Z,27.65
2023-01-25T22:44:27.566Z,28.75
2023-01-25T22:47:16.058Z,28.35
2023-01-25T22:50:05.204Z,27.00
2023-01-25T22:52:53.363Z,23.50
2023-01-25T22:55:42.363Z,25.48
2023-01-25T22:58:30.678Z,26.77
2023-01-25T23:01:22.112Z,30.20
2023-01-25T23:04:10.382Z,29.77
2023-01-25T23:07:02.969Z,28.88
2023-01-25T23:09:51.543Z,32.25
2023-01-25T23:12:39.857Z,28.80
2023-01-25T23:15:28.030Z,34.22
2023-01-25T23:18:34.978Z,30.45
2023-01-25T23:21:25.691Z,31.85
2023-01-25T23:24:13.952Z,20.30
2023-01-25T23:27:02.224Z,33.30
2023-01-25T23:29:51.746Z,31.25
2023-01-25T23:32:39.974Z,29.95
2023-01-25T23:35:29.467Z,32.63
2023-01-25T23:38:17.616Z,34.40
2023-01-25T23:41:06.092Z,35.67
2023-01-25T23:43:55.159Z,35.42
2023-01-25T23:46:43.447Z,30.88
2023-01-25T23:49:31.630Z,28.48
2023-01-25T23:52:21.143Z,37.22
2023-01-25T23:55:11.046Z,39.88
2023-01-25T23:57:59.218Z,30.70
